sensor_id;sensor_type;location;lat;lon;timestamp;temperature;humidity
7518;DHT22;3800;48.922;9.444;2023-08-07T00:02:23;11.90;99.90
7518;DHT22;3800;48.922;9.444;2023-08-07T00:04:51;11.90;99.90
7518;DHT22;3800;48.922;9.444;2023-08-07T00:07:19;11.80;99.90
7518;DHT22;3800;48.922;9.444;2023-08-07T00:09:48;11.90;99.90
7518;DHT22;3800;48.922;9.444;2023-08-07T00:12:16;11.90;99.90
7518;DHT22;3800;48.922;9.444;2023-08-07T00:14:47;11.90;99.90
7518;DHT22;3800;48.922;9.444;2023-08-07T00:17:13;11.90;99.90
7518;DHT22;3800;48.922;9.444;2023-08-07T00:19:41;11.90;99.90
7518;DHT22;3800;48.922;9.444;2023-08-07T00:22:10;11.90;99.90
7518;DHT22;3800;48.922;9.444;2023-08-07T00:24:38;11.90;99.90
7518;DHT22;3800;48.922;9.444;2023-08-07T00:27:07;11.80;99.90
7518;DHT22;3800;48.922;9.444;2023-08-07T00:29:36;11.80;99.90
7518;DHT22;3800;48.922;9.444;2023-08-07T00:32:05;11.90;99.90
7518;DHT22;3800;48.922;9.444;2023-08-07T00:34:34;11.90;99.90
7518;DHT22;3800;48.922;9.444;2023-08-07T00:37:05;11.90;99.90
7518;DHT22;3800;48.922;9.444;2023-08-07T00:39:34;11.80;99.90
7518;DHT22;3800;48.922;9.444;2023-08-07T00:42:03;11.80;99.90
7518;DHT22;3800;48.922;9.444;2023-08-07T00:44:37;11.90;99.90
7518;DHT22;3800;48.922;9.444;2023-08-07T00:47:06;11.90;99.90
7518;DHT22;3800;48.922;9.444;2023-08-07T00:49:35;11.80;99.90
7518;DHT22;3800;48.922;9.444;2023-08-07T00:52:05;11.80;99.90
7518;DHT22;3800;48.922;9.444;2023-08-07T00:54:34;11.90;99.90
7518;DHT22;3800;48.922;9.444;2023-08-07T00:57:08;11.90;99.90
7518;DHT22;3800;48.922;9.444;2023-08-07T00:59:34;11.80;99.90
7518;DHT22;3800;48.922;9.444;2023-08-07T01:02:03;11.90;99.90
7518;DHT22;3800;48.922;9.444;2023-08-07T01:04:31;11.90;99.90
7518;DHT22;3800;48.922;9.444;2023-08-07T01:07:01;11.90;99.90
7518;DHT22;3800;48.922;9.444;2023-08-07T01:09:30;11.90;99.90
7518;DHT22;3800;48.922;9.444;2023-08-07T01:12:03;11.90;99.90
7518;DHT22;3800;48.922;9.444;2023-08-07T01:14:47;12.00;99.90
7518;DHT22;3800;48.922;9.444;2023-08-07T01:17:23;11.90;99.90
7518;DHT22;3800;48.922;9.444;2023-08-07T01:19:51;12.00;99.90
7518;DHT22;3800;48.922;9.444;2023-08-07T01:22:20;12.00;99.90
7518;DHT22;3800;48.922;9.444;2023-08-07T01:24:49;12.00;99.90
7518;DHT22;3800;48.922;9.444;2023-08-07T01:30:24;12.00;99.90
7518;DHT22;3800;48.922;9.444;2023-08-07T01:35:43;12.00;99.90
7518;DHT22;3800;48.922;9.444;2023-08-07T01:38:11;12.00;99.90
7518;DHT22;3800;48.922;9.444;2023-08-07T01:40:39;12.00;99.90
7518;DHT22;3800;48.922;9.444;2023-08-07T01:43:07;12.00;99.90
7518;DHT22;3800;48.922;9.444;2023-08-07T01:45:36;12.00;99.90
7518;DHT22;3800;48.922;9.444;2023-08-07T01:48:05;12.00;99.90
7518;DHT22;3800;48.922;9.444;2023-08-07T01:50:35;12.00;99.90
7518;DHT22;3800;48.922;9.444;2023-08-07T01:53:04;12.00;99.90
7518;DHT22;3800;48.922;9.444;2023-08-07T01:55:32;12.00;99.90
7518;DHT22;3800;48.922;9.444;2023-08-07T01:58:00;12.00;99.90
7518;DHT22;3800;48.922;9.444;2023-08-07T02:00:29;12.00;99.90
7518;DHT22;3800;48.922;9.444;2023-08-07T02:02:57;12.00;99.90
7518;DHT22;3800;48.922;9.444;2023-08-07T02:05:26;12.00;99.90
7518;DHT22;3800;48.922;9.444;2023-08-07T02:07:55;12.00;99.90
7518;DHT22;3800;48.922;9.444;2023-08-07T02:10:24;12.00;99.90
7518;DHT22;3800;48.922;9.444;2023-08-07T02:12:54;12.00;99.90
7518;DHT22;3800;48.922;9.444;2023-08-07T02:15:23;11.90;99.90
7518;DHT22;3800;48.922;9.444;2023-08-07T02:17:51;12.00;99.90
7518;DHT22;3800;48.922;9.444;2023-08-07T02:20:20;12.00;99.90
7518;DHT22;3800;48.922;9.444;2023-08-07T02:22:49;12.00;99.90
7518;DHT22;3800;48.922;9.444;2023-08-07T02:25:17;12.00;99.90
7518;DHT22;3800;48.922;9.444;2023-08-07T02:27:47;12.00;99.90
7518;DHT22;3800;48.922;9.444;2023-08-07T02:30:16;12.00;99.90
7518;DHT22;3800;48.922;9.444;2023-08-07T02:32:45;12.00;99.90
7518;DHT22;3800;48.922;9.444;2023-08-07T02:35:15;12.00;99.90
7518;DHT22;3800;48.922;9.444;2023-08-07T02:37:44;11.90;99.90
7518;DHT22;3800;48.922;9.444;2023-08-07T02:40:12;11.90;99.90
7518;DHT22;3800;48.922;9.444;2023-08-07T02:42:41;11.90;99.90
7518;DHT22;3800;48.922;9.444;2023-08-07T02:45:09;11.90;99.90
7518;DHT22;3800;48.922;9.444;2023-08-07T02:47:39;11.90;99.90
7518;DHT22;3800;48.922;9.444;2023-08-07T02:50:08;11.90;99.90
7518;DHT22;3800;48.922;9.444;2023-08-07T02:52:37;11.90;99.90
7518;DHT22;3800;48.922;9.444;2023-08-07T02:55:05;11.90;99.90
7518;DHT22;3800;48.922;9.444;2023-08-07T02:57:34;11.90;99.90
7518;DHT22;3800;48.922;9.444;2023-08-07T03:00:02;12.00;99.90
7518;DHT22;3800;48.922;9.444;2023-08-07T03:02:33;11.90;99.90
7518;DHT22;3800;48.922;9.444;2023-08-07T03:05:03;11.90;99.90
7518;DHT22;3800;48.922;9.444;2023-08-07T03:07:32;11.90;99.90
7518;DHT22;3800;48.922;9.444;2023-08-07T03:10:01;11.90;99.90
7518;DHT22;3800;48.922;9.444;2023-08-07T03:12:29;11.90;99.90
7518;DHT22;3800;48.922;9.444;2023-08-07T03:14:57;11.90;99.90
7518;DHT22;3800;48.922;9.444;2023-08-07T03:17:26;11.90;99.90
7518;DHT22;3800;48.922;9.444;2023-08-07T03:19:54;11.90;99.90
7518;DHT22;3800;48.922;9.444;2023-08-07T03:22:23;11.90;99.90
7518;DHT22;3800;48.922;9.444;2023-08-07T03:24:52;11.90;99.90
7518;DHT22;3800;48.922;9.444;2023-08-07T03:27:20;11.90;99.90
7518;DHT22;3800;48.922;9.444;2023-08-07T03:29:49;11.90;99.90
7518;DHT22;3800;48.922;9.444;2023-08-07T03:32:18;11.90;99.90
7518;DHT22;3800;48.922;9.444;2023-08-07T03:34:46;11.90;99.90
7518;DHT22;3800;48.922;9.444;2023-08-07T03:37:15;11.90;99.90
7518;DHT22;3800;48.922;9.444;2023-08-07T03:39:44;11.80;99.90
7518;DHT22;3800;48.922;9.444;2023-08-07T03:42:13;11.80;99.90
7518;DHT22;3800;48.922;9.444;2023-08-07T03:44:43;11.80;99.90
7518;DHT22;3800;48.922;9.444;2023-08-07T03:47:11;11.80;99.90
7518;DHT22;3800;48.922;9.444;2023-08-07T03:49:41;11.80;99.90
7518;DHT22;3800;48.922;9.444;2023-08-07T03:52:11;11.80;99.90
7518;DHT22;3800;48.922;9.444;2023-08-07T03:54:40;11.90;99.90
7518;DHT22;3800;48.922;9.444;2023-08-07T03:57:08;11.80;99.90
7518;DHT22;3800;48.922;9.444;2023-08-07T03:59:37;11.80;99.90
7518;DHT22;3800;48.922;9.444;2023-08-07T04:02:06;11.80;99.90
7518;DHT22;3800;48.922;9.444;2023-08-07T04:04:34;11.80;99.90
7518;DHT22;3800;48.922;9.444;2023-08-07T04:07:03;11.80;99.90
7518;DHT22;3800;48.922;9.444;2023-08-07T04:09:32;11.80;99.90
7518;DHT22;3800;48.922;9.444;2023-08-07T04:12:00;11.90;99.90
7518;DHT22;3800;48.922;9.444;2023-08-07T04:14:28;11.90;99.90
7518;DHT22;3800;48.922;9.444;2023-08-07T04:16:56;11.80;99.90
7518;DHT22;3800;48.922;9.444;2023-08-07T04:19:25;11.80;99.90
7518;DHT22;3800;48.922;9.444;2023-08-07T04:21:54;11.90;99.90
7518;DHT22;3800;48.922;9.444;2023-08-07T04:24:23;11.90;99.90
7518;DHT22;3800;48.922;9.444;2023-08-07T04:26:51;11.80;99.90
7518;DHT22;3800;48.922;9.444;2023-08-07T04:29:20;11.80;99.90
7518;DHT22;3800;48.922;9.444;2023-08-07T04:31:50;11.80;99.90
7518;DHT22;3800;48.922;9.444;2023-08-07T04:34:18;11.80;99.90
7518;DHT22;3800;48.922;9.444;2023-08-07T04:36:47;11.80;99.90
7518;DHT22;3800;48.922;9.444;2023-08-07T04:39:15;11.80;99.90
7518;DHT22;3800;48.922;9.444;2023-08-07T04:41:43;11.80;99.90
7518;DHT22;3800;48.922;9.444;2023-08-07T04:44:12;11.70;99.90
7518;DHT22;3800;48.922;9.444;2023-08-07T04:46:41;11.70;99.90
7518;DHT22;3800;48.922;9.444;2023-08-07T04:49:10;11.80;99.90
7518;DHT22;3800;48.922;9.444;2023-08-07T04:51:39;11.70;99.90
7518;DHT22;3800;48.922;9.444;2023-08-07T04:54:08;11.70;99.90
7518;DHT22;3800;48.922;9.444;2023-08-07T04:56:38;11.70;99.90
7518;DHT22;3800;48.922;9.444;2023-08-07T04:59:08;11.70;99.90
7518;DHT22;3800;48.922;9.444;2023-08-07T05:01:36;11.70;99.90
7518;DHT22;3800;48.922;9.444;2023-08-07T05:04:05;11.70;99.90
7518;DHT22;3800;48.922;9.444;2023-08-07T05:06:33;11.80;99.90
7518;DHT22;3800;48.922;9.444;2023-08-07T05:09:02;11.70;99.90
7518;DHT22;3800;48.922;9.444;2023-08-07T05:11:30;11.80;99.90
7518;DHT22;3800;48.922;9.444;2023-08-07T05:13:59;11.80;99.90
7518;DHT22;3800;48.922;9.444;2023-08-07T05:16:27;11.80;99.90
7518;DHT22;3800;48.922;9.444;2023-08-07T05:18:56;11.80;99.90
7518;DHT22;3800;48.922;9.444;2023-08-07T05:21:25;11.80;99.90
7518;DHT22;3800;48.922;9.444;2023-08-07T05:23:54;11.80;99.90
7518;DHT22;3800;48.922;9.444;2023-08-07T05:26:22;11.90;99.90
7518;DHT22;3800;48.922;9.444;2023-08-07T05:28:50;11.90;99.90
7518;DHT22;3800;48.922;9.444;2023-08-07T05:31:19;11.90;99.90
7518;DHT22;3800;48.922;9.444;2023-08-07T05:33:47;11.90;99.90
7518;DHT22;3800;48.922;9.444;2023-08-07T05:36:16;11.90;99.90
7518;DHT22;3800;48.922;9.444;2023-08-07T05:38:44;11.90;99.90
7518;DHT22;3800;48.922;9.444;2023-08-07T05:41:12;11.90;99.90
7518;DHT22;3800;48.922;9.444;2023-08-07T05:43:42;11.90;99.90
7518;DHT22;3800;48.922;9.444;2023-08-07T05:46:10;11.90;99.90
7518;DHT22;3800;48.922;9.444;2023-08-07T05:48:39;12.00;99.90
7518;DHT22;3800;48.922;9.444;2023-08-07T05:51:08;12.00;99.90
7518;DHT22;3800;48.922;9.444;2023-08-07T05:53:36;12.00;99.90
7518;DHT22;3800;48.922;9.444;2023-08-07T05:56:04;12.00;99.90
7518;DHT22;3800;48.922;9.444;2023-08-07T05:58:34;12.00;99.90
7518;DHT22;3800;48.922;9.444;2023-08-07T06:01:02;12.00;99.90
7518;DHT22;3800;48.922;9.444;2023-08-07T06:03:30;12.00;99.90
7518;DHT22;3800;48.922;9.444;2023-08-07T06:05:59;12.10;99.90
7518;DHT22;3800;48.922;9.444;2023-08-07T06:08:27;12.10;99.90
7518;DHT22;3800;48.922;9.444;2023-08-07T06:10:56;12.10;99.90
7518;DHT22;3800;48.922;9.444;2023-08-07T06:13:24;12.20;99.90
7518;DHT22;3800;48.922;9.444;2023-08-07T06:15:52;12.20;99.90
7518;DHT22;3800;48.922;9.444;2023-08-07T06:18:21;12.30;99.90
7518;DHT22;3800;48.922;9.444;2023-08-07T06:20:50;12.30;99.90
7518;DHT22;3800;48.922;9.444;2023-08-07T06:23:18;12.40;99.90
7518;DHT22;3800;48.922;9.444;2023-08-07T06:25:46;12.40;99.90
7518;DHT22;3800;48.922;9.444;2023-08-07T06:28:14;12.50;99.90
7518;DHT22;3800;48.922;9.444;2023-08-07T06:30:43;12.60;99.90
7518;DHT22;3800;48.922;9.444;2023-08-07T06:33:12;12.50;99.90
7518;DHT22;3800;48.922;9.444;2023-08-07T06:35:40;12.60;99.90
7518;DHT22;3800;48.922;9.444;2023-08-07T06:38:08;12.70;99.90
7518;DHT22;3800;48.922;9.444;2023-08-07T06:40:37;12.70;99.90
7518;DHT22;3800;48.922;9.444;2023-08-07T06:43:06;12.80;99.90
7518;DHT22;3800;48.922;9.444;2023-08-07T06:45:35;12.90;99.90
7518;DHT22;3800;48.922;9.444;2023-08-07T06:48:03;13.00;99.90
7518;DHT22;3800;48.922;9.444;2023-08-07T06:50:31;13.00;99.90
7518;DHT22;3800;48.922;9.444;2023-08-07T06:53:00;13.10;99.90
7518;DHT22;3800;48.922;9.444;2023-08-07T06:55:28;13.20;99.90
7518;DHT22;3800;48.922;9.444;2023-08-07T06:57:59;13.20;99.90
7518;DHT22;3800;48.922;9.444;2023-08-07T07:00:28;13.30;99.90
7518;DHT22;3800;48.922;9.444;2023-08-07T07:02:56;13.40;99.90
7518;DHT22;3800;48.922;9.444;2023-08-07T07:05:24;13.50;99.90
7518;DHT22;3800;48.922;9.444;2023-08-07T07:07:53;13.50;99.90
7518;DHT22;3800;48.922;9.444;2023-08-07T07:10:21;13.60;99.90
7518;DHT22;3800;48.922;9.444;2023-08-07T07:12:49;13.60;99.90
7518;DHT22;3800;48.922;9.444;2023-08-07T07:15:18;13.60;99.90
7518;DHT22;3800;48.922;9.444;2023-08-07T07:17:48;13.80;99.90
7518;DHT22;3800;48.922;9.444;2023-08-07T07:20:17;13.90;99.90
7518;DHT22;3800;48.922;9.444;2023-08-07T07:22:46;14.10;99.90
7518;DHT22;3800;48.922;9.444;2023-08-07T07:25:14;14.10;99.90
7518;DHT22;3800;48.922;9.444;2023-08-07T07:27:44;13.80;99.90
7518;DHT22;3800;48.922;9.444;2023-08-07T07:30:12;13.80;99.90
7518;DHT22;3800;48.922;9.444;2023-08-07T07:32:40;13.70;99.90
7518;DHT22;3800;48.922;9.444;2023-08-07T07:35:09;13.70;99.90
7518;DHT22;3800;48.922;9.444;2023-08-07T07:37:38;13.60;99.90
7518;DHT22;3800;48.922;9.444;2023-08-07T07:40:07;13.60;99.90
7518;DHT22;3800;48.922;9.444;2023-08-07T07:42:36;13.50;99.90
7518;DHT22;3800;48.922;9.444;2023-08-07T07:45:05;13.50;99.90
7518;DHT22;3800;48.922;9.444;2023-08-07T07:47:33;13.50;99.90
7518;DHT22;3800;48.922;9.444;2023-08-07T07:50:06;13.50;99.90
7518;DHT22;3800;48.922;9.444;2023-08-07T07:52:34;13.40;99.90
7518;DHT22;3800;48.922;9.444;2023-08-07T07:55:03;13.40;99.90
7518;DHT22;3800;48.922;9.444;2023-08-07T07:57:31;13.40;99.90
7518;DHT22;3800;48.922;9.444;2023-08-07T07:59:59;13.40;99.90
7518;DHT22;3800;48.922;9.444;2023-08-07T08:02:28;13.40;99.90
7518;DHT22;3800;48.922;9.444;2023-08-07T08:04:56;13.40;99.90
7518;DHT22;3800;48.922;9.444;2023-08-07T08:07:25;13.40;99.90
7518;DHT22;3800;48.922;9.444;2023-08-07T08:09:53;13.40;99.90
7518;DHT22;3800;48.922;9.444;2023-08-07T08:12:25;13.50;99.90
7518;DHT22;3800;48.922;9.444;2023-08-07T08:14:53;13.50;99.90
7518;DHT22;3800;48.922;9.444;2023-08-07T08:17:23;13.50;99.90
7518;DHT22;3800;48.922;9.444;2023-08-07T08:19:51;13.60;99.90
7518;DHT22;3800;48.922;9.444;2023-08-07T08:22:20;13.70;99.90
7518;DHT22;3800;48.922;9.444;2023-08-07T08:24:48;13.70;99.90
7518;DHT22;3800;48.922;9.444;2023-08-07T08:27:17;13.70;99.90
7518;DHT22;3800;48.922;9.444;2023-08-07T08:29:45;13.60;99.90
7518;DHT22;3800;48.922;9.444;2023-08-07T08:32:13;13.50;99.90
7518;DHT22;3800;48.922;9.444;2023-08-07T08:34:41;13.50;99.90
7518;DHT22;3800;48.922;9.444;2023-08-07T08:37:11;13.50;99.90
7518;DHT22;3800;48.922;9.444;2023-08-07T08:39:40;13.40;99.90
7518;DHT22;3800;48.922;9.444;2023-08-07T08:42:10;13.50;99.90
7518;DHT22;3800;48.922;9.444;2023-08-07T08:44:37;13.50;99.90
7518;DHT22;3800;48.922;9.444;2023-08-07T08:47:06;13.40;99.90
7518;DHT22;3800;48.922;9.444;2023-08-07T08:49:35;13.50;99.90
7518;DHT22;3800;48.922;9.444;2023-08-07T08:52:05;13.50;99.90
7518;DHT22;3800;48.922;9.444;2023-08-07T08:54:33;13.50;99.90
7518;DHT22;3800;48.922;9.444;2023-08-07T08:57:01;13.50;99.90
7518;DHT22;3800;48.922;9.444;2023-08-07T08:59:30;13.60;99.90
7518;DHT22;3800;48.922;9.444;2023-08-07T09:01:58;13.70;99.90
7518;DHT22;3800;48.922;9.444;2023-08-07T09:04:27;13.70;99.90
7518;DHT22;3800;48.922;9.444;2023-08-07T09:06:56;13.80;99.90
7518;DHT22;3800;48.922;9.444;2023-08-07T09:09:24;14.00;99.90
7518;DHT22;3800;48.922;9.444;2023-08-07T09:11:53;14.10;99.90
7518;DHT22;3800;48.922;9.444;2023-08-07T09:14:22;14.10;99.90
7518;DHT22;3800;48.922;9.444;2023-08-07T09:16:51;14.30;99.90
7518;DHT22;3800;48.922;9.444;2023-08-07T09:19:19;14.30;99.90
7518;DHT22;3800;48.922;9.444;2023-08-07T09:21:47;14.40;99.90
7518;DHT22;3800;48.922;9.444;2023-08-07T09:24:15;14.50;99.90
7518;DHT22;3800;48.922;9.444;2023-08-07T09:26:44;14.70;99.90
7518;DHT22;3800;48.922;9.444;2023-08-07T09:29:13;14.60;99.90
7518;DHT22;3800;48.922;9.444;2023-08-07T09:31:43;14.70;99.90
7518;DHT22;3800;48.922;9.444;2023-08-07T09:34:13;15.00;99.90
7518;DHT22;3800;48.922;9.444;2023-08-07T09:36:42;15.00;99.90
7518;DHT22;3800;48.922;9.444;2023-08-07T09:39:11;15.20;99.90
7518;DHT22;3800;48.922;9.444;2023-08-07T09:41:39;15.30;99.90
7518;DHT22;3800;48.922;9.444;2023-08-07T09:44:09;15.40;99.90
7518;DHT22;3800;48.922;9.444;2023-08-07T09:46:46;15.50;99.90
7518;DHT22;3800;48.922;9.444;2023-08-07T09:49:14;15.60;99.90
7518;DHT22;3800;48.922;9.444;2023-08-07T09:51:45;15.60;99.90
7518;DHT22;3800;48.922;9.444;2023-08-07T09:54:13;15.60;99.90
7518;DHT22;3800;48.922;9.444;2023-08-07T09:56:43;15.70;99.90
7518;DHT22;3800;48.922;9.444;2023-08-07T09:59:10;15.90;99.90
7518;DHT22;3800;48.922;9.444;2023-08-07T10:01:39;16.00;99.90
7518;DHT22;3800;48.922;9.444;2023-08-07T10:04:08;16.00;99.90
7518;DHT22;3800;48.922;9.444;2023-08-07T10:06:37;16.10;99.90
7518;DHT22;3800;48.922;9.444;2023-08-07T10:09:05;16.00;99.90
7518;DHT22;3800;48.922;9.444;2023-08-07T10:11:34;16.00;99.90
7518;DHT22;3800;48.922;9.444;2023-08-07T10:14:02;16.10;99.90
7518;DHT22;3800;48.922;9.444;2023-08-07T10:16:32;16.40;99.90
7518;DHT22;3800;48.922;9.444;2023-08-07T10:19:00;16.30;99.90
7518;DHT22;3800;48.922;9.444;2023-08-07T10:21:28;16.50;99.90
7518;DHT22;3800;48.922;9.444;2023-08-07T10:23:57;16.60;99.90
7518;DHT22;3800;48.922;9.444;2023-08-07T10:26:25;16.70;99.90
7518;DHT22;3800;48.922;9.444;2023-08-07T10:28:54;16.80;99.90
7518;DHT22;3800;48.922;9.444;2023-08-07T10:31:22;16.70;99.90
7518;DHT22;3800;48.922;9.444;2023-08-07T10:33:51;16.40;99.90
7518;DHT22;3800;48.922;9.444;2023-08-07T10:36:20;16.40;99.90
7518;DHT22;3800;48.922;9.444;2023-08-07T10:38:50;16.30;99.90
7518;DHT22;3800;48.922;9.444;2023-08-07T10:41:20;16.40;99.90
7518;DHT22;3800;48.922;9.444;2023-08-07T10:43:48;16.40;99.90
7518;DHT22;3800;48.922;9.444;2023-08-07T10:46:19;16.60;99.90
7518;DHT22;3800;48.922;9.444;2023-08-07T10:48:48;16.90;99.90
7518;DHT22;3800;48.922;9.444;2023-08-07T10:51:17;16.90;99.90
7518;DHT22;3800;48.922;9.444;2023-08-07T10:53:46;16.60;99.90
7518;DHT22;3800;48.922;9.444;2023-08-07T10:56:31;16.60;99.90
7518;DHT22;3800;48.922;9.444;2023-08-07T10:59:03;16.50;99.90
7518;DHT22;3800;48.922;9.444;2023-08-07T11:01:48;16.60;99.90
7518;DHT22;3800;48.922;9.444;2023-08-07T11:04:13;16.60;99.90
7518;DHT22;3800;48.922;9.444;2023-08-07T11:06:42;16.50;99.90
7518;DHT22;3800;48.922;9.444;2023-08-07T11:09:09;16.40;99.90
7518;DHT22;3800;48.922;9.444;2023-08-07T11:11:39;16.20;99.90
7518;DHT22;3800;48.922;9.444;2023-08-07T11:14:07;16.10;99.90
7518;DHT22;3800;48.922;9.444;2023-08-07T11:16:36;16.00;99.90
7518;DHT22;3800;48.922;9.444;2023-08-07T11:19:06;15.70;99.90
7518;DHT22;3800;48.922;9.444;2023-08-07T11:21:34;15.70;99.90
7518;DHT22;3800;48.922;9.444;2023-08-07T11:24:03;15.60;99.90
7518;DHT22;3800;48.922;9.444;2023-08-07T11:26:31;15.60;99.90
7518;DHT22;3800;48.922;9.444;2023-08-07T11:28:59;15.60;99.90
7518;DHT22;3800;48.922;9.444;2023-08-07T11:31:28;15.50;99.90
7518;DHT22;3800;48.922;9.444;2023-08-07T11:33:57;15.50;99.90
7518;DHT22;3800;48.922;9.444;2023-08-07T11:36:25;15.50;99.90
7518;DHT22;3800;48.922;9.444;2023-08-07T11:38:53;15.60;99.90
7518;DHT22;3800;48.922;9.444;2023-08-07T11:41:21;15.60;99.90
7518;DHT22;3800;48.922;9.444;2023-08-07T11:43:50;15.80;99.90
7518;DHT22;3800;48.922;9.444;2023-08-07T11:46:19;15.80;99.90
7518;DHT22;3800;48.922;9.444;2023-08-07T11:48:48;15.80;99.90
7518;DHT22;3800;48.922;9.444;2023-08-07T11:51:17;15.80;99.90
7518;DHT22;3800;48.922;9.444;2023-08-07T11:53:45;15.80;99.90
7518;DHT22;3800;48.922;9.444;2023-08-07T11:56:14;15.70;99.90
7518;DHT22;3800;48.922;9.444;2023-08-07T11:58:42;15.60;99.90
7518;DHT22;3800;48.922;9.444;2023-08-07T12:01:19;15.60;99.90
7518;DHT22;3800;48.922;9.444;2023-08-07T12:03:52;15.60;99.90
7518;DHT22;3800;48.922;9.444;2023-08-07T12:06:21;15.70;99.90
7518;DHT22;3800;48.922;9.444;2023-08-07T12:08:49;15.70;99.90
7518;DHT22;3800;48.922;9.444;2023-08-07T12:11:19;15.70;99.90
7518;DHT22;3800;48.922;9.444;2023-08-07T12:13:48;15.90;99.90
7518;DHT22;3800;48.922;9.444;2023-08-07T12:16:17;15.90;99.90
7518;DHT22;3800;48.922;9.444;2023-08-07T12:18:45;16.00;99.90
7518;DHT22;3800;48.922;9.444;2023-08-07T12:21:15;15.90;99.90
7518;DHT22;3800;48.922;9.444;2023-08-07T12:23:43;16.00;99.90
7518;DHT22;3800;48.922;9.444;2023-08-07T12:26:12;16.00;99.90
7518;DHT22;3800;48.922;9.444;2023-08-07T12:28:41;16.00;99.90
7518;DHT22;3800;48.922;9.444;2023-08-07T12:31:10;16.00;99.90
7518;DHT22;3800;48.922;9.444;2023-08-07T12:33:39;16.00;99.90
7518;DHT22;3800;48.922;9.444;2023-08-07T12:36:08;16.10;99.90
7518;DHT22;3800;48.922;9.444;2023-08-07T12:38:36;16.10;99.90
7518;DHT22;3800;48.922;9.444;2023-08-07T12:41:04;16.10;99.90
7518;DHT22;3800;48.922;9.444;2023-08-07T12:43:32;16.10;99.90
7518;DHT22;3800;48.922;9.444;2023-08-07T12:46:01;16.10;99.90
7518;DHT22;3800;48.922;9.444;2023-08-07T12:48:30;16.10;99.90
7518;DHT22;3800;48.922;9.444;2023-08-07T12:51:00;16.00;99.90
7518;DHT22;3800;48.922;9.444;2023-08-07T12:53:28;16.00;99.90
7518;DHT22;3800;48.922;9.444;2023-08-07T12:55:56;16.00;99.90
7518;DHT22;3800;48.922;9.444;2023-08-07T12:58:25;15.90;99.90
7518;DHT22;3800;48.922;9.444;2023-08-07T13:00:53;15.70;99.90
7518;DHT22;3800;48.922;9.444;2023-08-07T13:03:22;15.60;99.90
7518;DHT22;3800;48.922;9.444;2023-08-07T13:05:52;15.50;99.90
7518;DHT22;3800;48.922;9.444;2023-08-07T13:08:21;15.40;99.90
7518;DHT22;3800;48.922;9.444;2023-08-07T13:10:50;15.40;99.90
7518;DHT22;3800;48.922;9.444;2023-08-07T13:13:18;15.40;99.90
7518;DHT22;3800;48.922;9.444;2023-08-07T13:15:46;15.40;99.90
7518;DHT22;3800;48.922;9.444;2023-08-07T13:18:15;15.40;99.90
7518;DHT22;3800;48.922;9.444;2023-08-07T13:20:45;15.30;99.90
7518;DHT22;3800;48.922;9.444;2023-08-07T13:23:13;15.30;99.90
7518;DHT22;3800;48.922;9.444;2023-08-07T13:25:42;15.20;99.90
7518;DHT22;3800;48.922;9.444;2023-08-07T13:28:11;15.00;99.90
7518;DHT22;3800;48.922;9.444;2023-08-07T13:30:41;15.00;99.90
7518;DHT22;3800;48.922;9.444;2023-08-07T13:33:10;15.00;99.90
7518;DHT22;3800;48.922;9.444;2023-08-07T13:35:38;15.10;99.90
7518;DHT22;3800;48.922;9.444;2023-08-07T13:38:07;15.20;99.90
7518;DHT22;3800;48.922;9.444;2023-08-07T13:40:35;15.30;99.90
7518;DHT22;3800;48.922;9.444;2023-08-07T13:43:03;15.50;99.90
7518;DHT22;3800;48.922;9.444;2023-08-07T13:45:32;15.60;99.90
7518;DHT22;3800;48.922;9.444;2023-08-07T13:48:01;15.70;99.90
7518;DHT22;3800;48.922;9.444;2023-08-07T13:50:30;16.10;99.90
7518;DHT22;3800;48.922;9.444;2023-08-07T13:52:58;16.10;99.90
7518;DHT22;3800;48.922;9.444;2023-08-07T13:55:26;16.40;99.90
7518;DHT22;3800;48.922;9.444;2023-08-07T13:57:55;16.60;99.90
7518;DHT22;3800;48.922;9.444;2023-08-07T14:00:23;16.80;99.90
7518;DHT22;3800;48.922;9.444;2023-08-07T14:02:51;16.80;99.90
7518;DHT22;3800;48.922;9.444;2023-08-07T14:05:20;17.00;99.90
7518;DHT22;3800;48.922;9.444;2023-08-07T14:07:48;17.10;99.90
7518;DHT22;3800;48.922;9.444;2023-08-07T14:10:16;17.10;99.90
7518;DHT22;3800;48.922;9.444;2023-08-07T14:12:45;17.20;99.90
7518;DHT22;3800;48.922;9.444;2023-08-07T14:15:13;17.20;99.90
7518;DHT22;3800;48.922;9.444;2023-08-07T14:17:42;17.30;99.90
7518;DHT22;3800;48.922;9.444;2023-08-07T14:20:11;17.30;99.90
7518;DHT22;3800;48.922;9.444;2023-08-07T14:22:40;17.40;99.90
7518;DHT22;3800;48.922;9.444;2023-08-07T14:25:15;17.30;99.90
7518;DHT22;3800;48.922;9.444;2023-08-07T14:27:43;17.30;99.90
7518;DHT22;3800;48.922;9.444;2023-08-07T14:30:12;17.40;99.90
7518;DHT22;3800;48.922;9.444;2023-08-07T14:32:41;17.40;99.90
7518;DHT22;3800;48.922;9.444;2023-08-07T14:35:10;17.40;99.90
7518;DHT22;3800;48.922;9.444;2023-08-07T14:37:39;17.20;99.90
7518;DHT22;3800;48.922;9.444;2023-08-07T14:40:08;17.10;99.90
7518;DHT22;3800;48.922;9.444;2023-08-07T14:42:36;17.00;99.90
7518;DHT22;3800;48.922;9.444;2023-08-07T14:45:06;16.80;99.90
7518;DHT22;3800;48.922;9.444;2023-08-07T14:47:35;16.70;99.90
7518;DHT22;3800;48.922;9.444;2023-08-07T14:50:04;16.70;99.90
7518;DHT22;3800;48.922;9.444;2023-08-07T14:52:32;16.70;99.90
7518;DHT22;3800;48.922;9.444;2023-08-07T14:55:01;16.60;99.90
7518;DHT22;3800;48.922;9.444;2023-08-07T14:57:29;16.60;99.90
7518;DHT22;3800;48.922;9.444;2023-08-07T14:59:59;16.60;99.90
7518;DHT22;3800;48.922;9.444;2023-08-07T15:02:27;16.70;99.90
7518;DHT22;3800;48.922;9.444;2023-08-07T15:04:57;16.70;99.90
7518;DHT22;3800;48.922;9.444;2023-08-07T15:07:25;16.80;99.90
7518;DHT22;3800;48.922;9.444;2023-08-07T15:09:55;16.90;99.90
7518;DHT22;3800;48.922;9.444;2023-08-07T15:12:24;17.00;99.90
7518;DHT22;3800;48.922;9.444;2023-08-07T15:14:52;17.10;99.90
7518;DHT22;3800;48.922;9.444;2023-08-07T15:17:21;17.10;99.90
7518;DHT22;3800;48.922;9.444;2023-08-07T15:19:50;17.10;99.90
7518;DHT22;3800;48.922;9.444;2023-08-07T15:22:19;17.00;99.90
7518;DHT22;3800;48.922;9.444;2023-08-07T15:24:49;16.90;99.90
7518;DHT22;3800;48.922;9.444;2023-08-07T15:27:17;16.80;99.90
7518;DHT22;3800;48.922;9.444;2023-08-07T15:29:45;16.80;99.90
7518;DHT22;3800;48.922;9.444;2023-08-07T15:32:13;16.80;99.90
7518;DHT22;3800;48.922;9.444;2023-08-07T15:34:42;16.70;99.90
7518;DHT22;3800;48.922;9.444;2023-08-07T15:37:11;16.70;99.90
7518;DHT22;3800;48.922;9.444;2023-08-07T15:39:40;16.70;99.90
7518;DHT22;3800;48.922;9.444;2023-08-07T15:42:08;16.90;99.90
7518;DHT22;3800;48.922;9.444;2023-08-07T15:44:37;17.10;99.90
7518;DHT22;3800;48.922;9.444;2023-08-07T15:47:05;17.40;99.90
7518;DHT22;3800;48.922;9.444;2023-08-07T15:49:34;17.60;99.90
7518;DHT22;3800;48.922;9.444;2023-08-07T15:52:02;17.60;99.90
7518;DHT22;3800;48.922;9.444;2023-08-07T15:54:31;17.60;99.90
7518;DHT22;3800;48.922;9.444;2023-08-07T15:56:59;17.60;99.90
7518;DHT22;3800;48.922;9.444;2023-08-07T15:59:28;17.70;99.90
7518;DHT22;3800;48.922;9.444;2023-08-07T16:01:57;17.60;99.90
7518;DHT22;3800;48.922;9.444;2023-08-07T16:04:26;17.40;99.90
7518;DHT22;3800;48.922;9.444;2023-08-07T16:06:56;17.40;99.90
7518;DHT22;3800;48.922;9.444;2023-08-07T16:09:24;17.30;99.90
7518;DHT22;3800;48.922;9.444;2023-08-07T16:11:54;17.20;99.90
7518;DHT22;3800;48.922;9.444;2023-08-07T16:14:22;17.20;99.90
7518;DHT22;3800;48.922;9.444;2023-08-07T16:16:51;17.40;99.90
7518;DHT22;3800;48.922;9.444;2023-08-07T16:19:19;17.50;99.90